Flight Track Log - Related Links

Times and Time Zones

All times are in EDT time to prevent confusion due to time zone crossing. See the CPZ5750 flight status page for this flight to view local times or setup timezone preferences in your user account.

Time Position Orientation Groundspeed Altitude Reporting Facility
EDT Latitude Longitude Course Direction KTS MPH feet Rate Location/Type
Sun 04:40:01 PM 44.9333 -93.2667 70° East 201 231 2,400  Level Minneapolis TRACON
Sun 04:41:07 PM 45.0000 -93.2833 350° North 243 280 5,500 2,342 Climbing Minneapolis TRACON
Sun 04:42:00 PM 45.0393 -92.6211 68° East  Level FlightAware
Sun 04:42:27 PM 45.0431 -93.1914 56° Northeast 244 281 8,100  Level Minneapolis Center
Sun 04:43:00 PM 45.0820 -92.4715 68° East  Level FlightAware
Sun 04:43:29 PM 45.0808 -93.0617 68° East 300 345 10,400  Level Minneapolis Center
Sun 04:44:00 PM 45.1163 -92.3185 70° East  Level FlightAware
Sun 04:44:31 PM 45.1178 -92.9364 67° East 350 403 11,700  Level Minneapolis Center
Sun 04:45:00 PM 45.1543 -92.1666 70° East  Level FlightAware
Sun 04:45:33 PM 45.1567 -92.8019 68° East 370 426 13,700  Level Minneapolis Center
Sun 04:46:36 PM 45.1967 -92.6617 68° East 384 442 15,600 1,872 Climbing Minneapolis Center
Sun 04:47:38 PM 45.2378 -92.5178 68° East 393 452 17,600 1,790 Climbing Minneapolis Center
Sun 04:48:40 PM 45.2792 -92.3725 68° East 397 457 19,300 1,721 Climbing Minneapolis Center
Sun 04:49:54 PM 45.3222 -92.1486 75° East 424 488 21,500 1,544 Climbing Minneapolis Center
Sun 04:50:56 PM 45.3461 -91.9806 79° East 433 498 22,800 1,210 Climbing Minneapolis Center
Sun 04:51:58 PM 45.3453 -91.8042 90° East 452 520 24,000 1,355 Climbing Minneapolis Center
Sun 04:53:00 PM 45.3108 -91.6331 106° East 454 522 25,600 1,296 Climbing Minneapolis Center
Sun 04:54:03 PM 45.2750 -91.4622 107° East 454 522 26,700 960 Climbing Minneapolis Center
Sun 04:55:05 PM 45.2322 -91.2539 106° East 456 525 27,600 823 Climbing Minneapolis Center
Sun 04:56:07 PM 45.1942 -91.0706 106° East 470 541 28,400 774 Climbing Minneapolis Center
Sun 04:57:09 PM 45.1561 -90.8889 106° East 479 551 29,200 968 Climbing Minneapolis Center
Sun 04:58:11 PM 45.1175 -90.7064 107° East 484 557 30,400 1,113 Climbing Minneapolis Center
Sun 04:59:13 PM 45.0811 -90.5286 106° East 476 548 31,500 823 Climbing Minneapolis Center
Sun 05:00:15 PM 45.0497 -90.3458 104° East 480 552 32,100 774 Climbing Minneapolis Center
Sun 05:01:17 PM 45.0328 -90.1228 96° East 480 552 33,100 871 Climbing Minneapolis Center
Sun 05:02:19 PM 45.0172 -89.9375 97° East 478 550 33,900 726 Climbing Minneapolis Center
Sun 05:03:21 PM 45.0017 -89.7533 97° East 475 547 34,600 532 Climbing Minneapolis Center
Sun 05:04:23 PM 44.9864 -89.5797 97° East 473 544 35,000 194 Climbing Minneapolis Center
Sun 05:05:25 PM 44.9675 -89.3608 97° East 480 552 35,000  Level Minneapolis Center
Sun 05:06:28 PM 44.9506 -89.1756 97° East 476 548 35,000  Level Minneapolis Center
Sun 05:07:30 PM 44.9336 -88.9922 97° East 472 543 35,000  Level Minneapolis Center
Sun 05:08:32 PM 44.9169 -88.8078 97° East 472 543 35,000  Level Minneapolis Center
Sun 05:09:34 PM 44.8983 -88.6222 98° East 476 548 35,000  Level Minneapolis Center
Sun 05:10:36 PM 44.8775 -88.4078 98° East 472 543 35,000  Level Minneapolis Center
Sun 05:11:38 PM 44.8597 -88.2331 98° East 469 540 35,000  Level Minneapolis Center
Sun 05:12:40 PM 44.8422 -88.0533 98° East 465 535 35,000  Level Minneapolis Center
Sun 05:13:42 PM 44.8236 -87.8744 98° East 463 533 35,000  Level Minneapolis Center
Sun 05:14:44 PM 44.8064 -87.6969 98° East 459 528 35,000  Level Minneapolis Center
Sun 05:15:46 PM 44.7828 -87.4819 99° East 463 533 35,000  Level Minneapolis Center
Sun 05:16:48 PM 44.7636 -87.3000 98° East 470 541 35,000  Level Minneapolis Center
Sun 05:17:51 PM 44.7431 -87.1208 99° East 467 537 35,000  Level Minneapolis Center
Sun 05:18:53 PM 44.7225 -86.9406 99° East 468 539 35,000  Level Minneapolis Center
Sun 05:19:55 PM 44.7028 -86.7553 98° East 464 534 35,000  Level Minneapolis Center
Sun 05:20:57 PM 44.6819 -86.5731 99° East 470 541 35,000 -48 Level Minneapolis Center
Sun 05:21:59 PM 44.6611 -86.3961 99° East 464 534 34,900 -581 Descending Minneapolis Center
Sun 05:23:01 PM 44.6381 -86.1967 99° East 460 529 33,800 -1,452 Descending Minneapolis Center
Sun 05:24:03 PM 44.6175 -86.0253 100° East 458 527 31,900 -1,355 Descending Minneapolis Center
Sun 05:25:05 PM 44.5964 -85.8528 100° East 456 525 31,000 -1,065 Descending Minneapolis Center
Sun 05:26:07 PM 44.5714 -85.6422 99° East 460 529 29,700 -968 Descending Minneapolis Center
Sun 05:27:09 PM 44.5489 -85.4617 100° East 470 541 29,000 -339 Descending Minneapolis Center
Sun 05:28:11 PM 44.5264 -85.2839 100° East 468 539 29,000  Level Minneapolis Center
Sun 05:29:13 PM 44.5047 -85.1094 100° East 460 529 29,000  Level Minneapolis Center
Sun 05:30:15 PM 44.4819 -84.9331 100° East 461 531 29,000  Level Minneapolis Center
Sun 05:31:17 PM 44.4583 -84.7200 99° East 463 533 29,000  Level Minneapolis Center
Sun 05:32:19 PM 44.4403 -84.5408 98° East 466 536 29,000 -48 Level Minneapolis Center
Sun 05:33:21 PM 44.4217 -84.3642 98° East 463 533 28,900  Descending Minneapolis Center
Sun 05:34:22 PM 44.4022 -84.1900 99° East 457 526 29,000 -293 Climbing Minneapolis Center
Sun 05:35:24 PM 44.3833 -84.0156 99° East 455 524 28,300 -823 Descending Minneapolis Center
Sun 05:36:26 PM 44.3633 -83.8436 99° East 452 520 27,300 -629 Descending Minneapolis Center
Sun 05:37:28 PM 44.3408 -83.6386 99° East 448 516 27,000 -145 Descending Minneapolis Center
Sun 05:38:30 PM 44.3211 -83.4775 100° East 429 494 27,000  Level Minneapolis Center
Sun 05:39:32 PM 44.3042 -83.3186 98° East 418 481 27,000  Level Minneapolis Center
Sun 05:40:34 PM 44.2858 -83.1572 99° East 421 484 27,000  Level Minneapolis Center
Sun 05:41:14 PM 44.2500 -83.0333 112° Southeast 420 483 27,000  Level Toronto Center
Sun 05:42:14 PM 44.2333 -82.8667 98° East 420 483 27,000  Level Toronto Center
Sun 05:43:14 PM 44.2000 -82.7000 106° East 420 483 27,000  Level Toronto Center
Sun 05:44:14 PM 44.2000 -82.5333 90° East 420 483 27,000  Level Toronto Center
Sun 05:45:14 PM 44.1833 -82.3833 99° East 420 483 27,000  Level Toronto Center
Sun 05:46:14 PM 44.1500 -82.2333 107° East 420 483 27,000  Level Toronto Center
Sun 05:47:14 PM 44.1167 -82.0667 106° East 420 483 27,000  Level Toronto Center
Sun 05:48:14 PM 44.0833 -81.9333 109° East 410 472 27,000  Level Toronto Center
Sun 05:49:14 PM 44.0333 -81.7833 115° Southeast 410 472 27,000  Level Toronto Center
Sun 05:50:14 PM 43.9667 -81.6500 125° Southeast 410 472 27,000  Level Toronto Center
Sun 05:51:14 PM 43.9167 -81.5333 121° Southeast 410 472 27,000  Level Toronto Center
Sun 05:52:14 PM 43.8500 -81.3667 119° Southeast 410 472 27,000  Level Toronto Center
Sun 05:53:14 PM 43.8000 -81.2500 121° Southeast 410 472 27,000  Level Toronto Center
Sun 05:54:14 PM 43.7333 -81.1167 125° Southeast 420 483 27,000  Level Toronto Center
Sun 05:55:14 PM 43.6833 -80.9500 112° Southeast 440 506 27,000  Level Toronto Center
Sun 05:56:14 PM 43.6333 -80.8000 115° Southeast 440 506 27,000  Level Toronto Center
Sun 05:57:14 PM 43.5667 -80.6500 121° Southeast 440 506 27,000  Level Toronto Center
Sun 05:58:14 PM 43.5167 -80.5000 115° Southeast 440 506 27,000  Level Toronto Center
Sun 05:59:14 PM 43.4500 -80.3667 125° Southeast 440 506 27,000  Level Toronto Center
Sun 06:00:14 PM 43.4333 -80.1833 97° East 450 518 27,000  Level Toronto Center
Sun 06:01:14 PM 43.4167 -80.0167 98° East 460 529 27,000  Level Toronto Center
Sun 06:02:14 PM 43.4000 -79.8333 97° East 460 529 27,000  Level Toronto Center
Sun 06:03:14 PM 43.3833 -79.6500 97° East 460 529 27,000  Level Toronto Center
Sun 06:04:14 PM 43.3833 -79.5000 90° East 460 529 27,000  Level Toronto Center
Sun 06:05:14 PM 43.3667 -79.3333 98° East 460 529 27,000  Level Toronto Center
Sun 06:06:14 PM 43.3500 -79.1667 98° East 430 495 27,000  Level Toronto Center
Sun 06:07:14 PM 43.3333 -79.0167 99° East 430 495 27,000  Level Toronto Center
Sun 06:08:14 PM 43.3167 -78.8333 97° East 430 495 27,000  Level Toronto Center
Sun 06:09:00 PM 43.3167 -78.7314 90° East 429 494 27,000  Level Cleveland Center
Sun 06:10:00 PM 43.3011 -78.5578 97° East 434 499 27,000  Level Cleveland Center
Sun 06:11:00 PM 43.2856 -78.3872 97° East 446 513 27,000  Level Cleveland Center
Sun 06:12:00 PM 43.2675 -78.2111 98° East 451 519 27,000  Level Cleveland Center
Sun 06:13:00 PM 43.2511 -78.0350 97° East 457 526 27,000  Level Cleveland Center
Sun 06:14:00 PM 43.2347 -77.8589 97° East 462 532 27,000  Level Cleveland Center
Sun 06:15:00 PM 43.2186 -77.7058 98° East 462 532 27,000  Level Cleveland Center
Sun 06:17:14 PM 43.1500 -77.2500 102° East 460 529 27,000  Level Toronto Center
Sun 06:18:14 PM 43.1500 -77.1000 90° East 460 529 27,000  Level Toronto Center
Sun 06:19:14 PM 43.1333 -76.9167 97° East 460 529 27,000  Level Toronto Center
Sun 06:20:14 PM 43.1167 -76.7500 98° East 460 529 27,000  Level Toronto Center
Sun 06:21:18 PM 43.1014 -76.6122 99° East 437 503 27,000 -49 Level Boston Center
Sun 06:22:17 PM 43.1347 -76.4408 75° East 457 526 26,900 -555 Descending Boston Center
Sun 06:23:17 PM 43.1736 -76.2811 71° East 457 526 25,900 -1,000 Descending Boston Center
Sun 06:24:17 PM 43.2119 -76.1269 71° East 447 514 24,900 -1,000 Descending Boston Center
Sun 06:25:17 PM 43.2397 -75.9717 76° East 447 514 23,900 -1,000 Descending Boston Center
Sun 06:26:17 PM 43.2175 -75.8164 101° East 447 514 22,900 -1,000 Descending Boston Center
Sun 06:27:17 PM 43.1992 -75.6589 99° East 447 514 21,900 -1,100 Descending Boston Center
Sun 06:28:17 PM 43.1767 -75.4894 100° East 417 480 20,700 -1,300 Descending Boston Center
Sun 06:29:17 PM 43.1575 -75.3378 100° East 412 474 19,300 -1,600 Descending Boston Center
Sun 06:30:17 PM 43.1383 -75.1917 100° East 407 468 17,500 -1,900 Descending Boston Center
Sun 06:31:17 PM 43.1208 -75.0458 99° East 396 456 15,500 -2,000 Descending Boston Center
Sun 06:32:17 PM 43.1031 -74.9086 100° East 384 442 13,500 -1,953 Descending Boston Center
Sun 06:33:26 PM 43.0833 -74.7600 100° East 353 406 11,300 -1,220 Descending Boston Center
Sun 06:34:20 PM 43.0647 -74.6425 102° East 339 390 11,000 -157 Descending Boston Center
Sun 06:35:21 PM 43.0839 -74.5181 78° East 345 397 11,000  Level Boston Center
Sun 06:36:22 PM 43.1028 -74.3881 79° East 350 403 11,000 -328 Level Boston Center
Sun 06:37:29 PM 43.1197 -74.2406 81° East 337 388 10,300 -1,140 Descending Boston Center
Sun 06:38:23 PM 43.1256 -74.1297 86° East 312 359 8,700 -1,983 Descending Boston Center
Sun 06:39:24 PM 43.0936 -74.0381 115° Southeast 294 338 6,500 -2,083 Descending Boston Center
Sun 06:40:24 PM 43.0256 -73.9850 150° Southeast 278 320 4,500 -1,736 Descending Boston Center
Sun 06:41:25 PM 42.9597 -73.9325 150° Southeast 274 315 3,000 -885 Descending Boston Center
Sun 06:42:26 PM 42.9061 -73.8800 144° Southeast 238 274 2,700 -435 Descending Boston Center
Sun 06:43:29 PM 42.8464 -73.8278 147° Southeast 241 277 2,100 -571 Descending Boston Center

Login

Don't have an account? Register now (free) for customized features, flight alerts, and more!